Saint-Gerard, Canada
Current Conditions -  °F | °C
As of 5:00 AM on Saturday 29 Nov 2014 (Local Time) from CYSC Reporting Station
Clear Clear  
Wind Chill:   Ceiling: Unl
Heat Index:   Visibility: 9mi
Dew Point:   Wind: 3mph
Humidity: 100%   Direction: 210°SSW
Pressure: 30.19"   Gusts: NA
Location:  45.77°N, 71.42°W
Report Text: CYSC 291000Z AUTO 21003KT 9SM CLR M13/M13 A3019 RMK SLP240
Loading
Personal Weather Stations






























Interactive Weather Map New forecast layout! Learn more

10-Day Weather Forecast

Advertisements
Track Severe Weather on mobile